Terminal Aerodrome Forecast
Issued by NWS Medford, OR

Home | Current Version | Previous Version | Text Only | Print | Product List | Glossary On
Versions: 1 2 3 4 5 6 7 8 9 10 11 12 13 14 15 16 17 18 19 20 21 22
000
FTUS46 KMFR 210530
TAFMFR
TAF
KMFR 210530Z 2106/2206 VRB02KT P6SM BKN060
     FM211900 32002KT 5SM FU SKC
     FM220000 32009KT 5SM FU SKC
     FM220200 34009KT P6SM BKN050
     FM220300 36004KT P6SM SCT050=

USA.gov is the U.S. government's official web portal to all federal, state and local government web resources and services.